Farmington, Arkansas
Current Conditions -  °F | °C
As of 7:53 PM on Thursday 18 Dec 2014 (Local Time) from KFYV Reporting Station
Haze Haze  
Wind Chill: 40°   Ceiling: 700
Heat Index: 40°   Visibility: 5mi
Dew Point: 38°   Wind: 0mph
Humidity: 93%   Direction: NA
Pressure: 30.19"   Gusts: NA
Location:  36.04°N, 94.25°W
Report Text: KFYV 190153Z 00000KT 5SM BR OVC007 04/03 A3019 RMK AO2 SLP229 T00440033
Loading
Personal Weather Stations






























Interactive Weather Map New forecast layout! Learn more

10-Day Weather Forecast

Advertisements
Track Severe Weather on mobile